createdAt,value
2018-07-15T00:02:11.870Z,99.50
2018-07-15T00:04:44.297Z,99.60
2018-07-15T00:09:49.458Z,99.70
2018-07-15T00:12:21.919Z,99.80
2018-07-15T00:14:54.384Z,99.80
2018-07-15T00:17:26.903Z,99.90
2018-07-15T00:19:59.406Z,99.70
2018-07-15T00:22:31.884Z,99.70
2018-07-15T00:25:04.438Z,99.70
2018-07-15T00:27:36.863Z,99.70
2018-07-15T00:30:09.326Z,99.60
2018-07-15T00:32:41.777Z,99.70
2018-07-15T00:35:14.706Z,99.80
2018-07-15T00:37:47.197Z,99.70
2018-07-15T00:40:20.021Z,99.80
2018-07-15T00:42:52.463Z,99.90
2018-07-15T00:45:25.392Z,99.90
2018-07-15T00:47:57.847Z,99.90
2018-07-15T00:50:30.689Z,99.90
2018-07-15T00:53:03.510Z,99.90
2018-07-15T00:55:36.745Z,99.90
2018-07-15T00:58:10.921Z,99.90
2018-07-15T01:00:50.346Z,99.90
2018-07-15T01:03:22.770Z,99.90
2018-07-15T01:05:55.251Z,99.90
2018-07-15T01:08:27.724Z,99.90
2018-07-15T01:11:00.234Z,99.90
2018-07-15T01:13:32.778Z,99.90
2018-07-15T01:16:05.977Z,99.90
2018-07-15T01:18:38.430Z,99.90
2018-07-15T01:21:11.047Z,99.90
2018-07-15T01:23:43.602Z,99.90
2018-07-15T01:26:16.613Z,99.90
2018-07-15T01:28:49.677Z,99.90
2018-07-15T01:31:22.187Z,99.90
2018-07-15T01:33:54.942Z,99.90
2018-07-15T01:36:27.387Z,99.90
2018-07-15T01:38:59.835Z,99.90
2018-07-15T01:41:32.495Z,99.90
2018-07-15T01:44:05.033Z,99.90
2018-07-15T01:46:37.637Z,99.90
2018-07-15T01:49:10.140Z,99.90
2018-07-15T01:51:42.580Z,99.90
2018-07-15T01:54:15.425Z,99.90
2018-07-15T01:56:47.846Z,99.90
2018-07-15T01:59:20.494Z,99.90
2018-07-15T02:01:56.146Z,99.90
2018-07-15T02:04:28.607Z,99.90
2018-07-15T02:07:01.125Z,99.90
2018-07-15T02:09:33.949Z,99.90
2018-07-15T02:12:06.978Z,99.90
2018-07-15T02:14:41.094Z,99.90
2018-07-15T02:17:14.380Z,99.90
2018-07-15T02:19:47.099Z,99.90
2018-07-15T02:22:20.129Z,99.90
2018-07-15T02:24:52.614Z,99.90
2018-07-15T02:27:25.159Z,99.90
2018-07-15T02:32:31.661Z,99.90
2018-07-15T02:35:04.585Z,99.90
2018-07-15T02:37:37.068Z,99.90
2018-07-15T02:40:09.796Z,99.90
2018-07-15T02:42:44.204Z,99.90
2018-07-15T02:45:18.330Z,99.90
2018-07-15T02:47:51.962Z,99.90
2018-07-15T02:50:24.461Z,99.90
2018-07-15T02:52:56.874Z,99.90
2018-07-15T02:55:29.660Z,99.90
2018-07-15T02:58:02.089Z,99.90
2018-07-15T03:00:34.615Z,99.90
2018-07-15T03:03:07.308Z,99.90
2018-07-15T03:05:39.768Z,99.90
2018-07-15T03:08:12.202Z,99.90
2018-07-15T03:10:44.642Z,99.90
2018-07-15T03:13:17.269Z,99.90
2018-07-15T03:18:23.095Z,99.90
2018-07-15T03:20:55.566Z,99.90
2018-07-15T03:23:28.063Z,99.90
2018-07-15T03:26:00.630Z,99.90
2018-07-15T03:28:33.133Z,99.90
2018-07-15T03:31:05.574Z,99.90
2018-07-15T03:33:38.030Z,99.90
2018-07-15T03:38:42.927Z,99.90
2018-07-15T03:41:15.329Z,99.90
2018-07-15T03:43:48.326Z,99.90
2018-07-15T03:46:20.751Z,99.90
2018-07-15T03:48:53.170Z,99.90
2018-07-15T03:51:26.001Z,99.90
2018-07-15T03:53:58.432Z,99.90
2018-07-15T03:56:30.859Z,99.90
2018-07-15T03:59:03.279Z,99.90
2018-07-15T04:01:35.725Z,99.90
2018-07-15T04:04:11.697Z,99.90
2018-07-15T04:06:44.108Z,99.90
2018-07-15T04:09:16.595Z,99.90
2018-07-15T04:11:49.016Z,99.90
2018-07-15T04:14:21.402Z,99.90
2018-07-15T04:16:53.856Z,99.90
2018-07-15T04:19:26.260Z,99.90
2018-07-15T04:21:58.704Z,99.90
2018-07-15T04:24:31.210Z,99.90
2018-07-15T04:27:03.739Z,99.90
2018-07-15T04:29:36.228Z,99.90
2018-07-15T04:32:08.635Z,99.90
2018-07-15T04:34:41.032Z,99.90
2018-07-15T04:37:13.447Z,99.90
2018-07-15T04:39:45.913Z,99.90
2018-07-15T04:42:18.320Z,99.90
2018-07-15T04:44:50.837Z,99.90
2018-07-15T04:47:23.278Z,99.90
2018-07-15T04:49:55.649Z,99.90
2018-07-15T04:52:28.078Z,99.90
2018-07-15T04:55:00.502Z,99.90
2018-07-15T04:57:33.104Z,99.90
2018-07-15T05:00:05.859Z,99.90
2018-07-15T05:02:38.521Z,99.90
2018-07-15T05:05:11.034Z,99.90
2018-07-15T05:07:43.497Z,99.90
2018-07-15T05:10:15.926Z,99.90
2018-07-15T05:12:48.357Z,99.90
2018-07-15T05:15:20.794Z,99.90
2018-07-15T05:17:53.959Z,99.90
2018-07-15T05:20:26.436Z,99.90
2018-07-15T05:22:58.893Z,99.90
2018-07-15T05:25:31.444Z,99.90
2018-07-15T05:28:03.960Z,99.90
2018-07-15T05:30:36.418Z,99.90
2018-07-15T05:33:09.171Z,99.80
2018-07-15T05:35:41.631Z,99.70
2018-07-15T05:38:14.225Z,99.60
2018-07-15T05:40:46.658Z,99.50
2018-07-15T05:43:19.097Z,99.30
2018-07-15T05:45:51.598Z,99.20
2018-07-15T05:48:24.077Z,99.00
2018-07-15T05:50:56.651Z,99.00
2018-07-15T05:53:29.120Z,98.30
2018-07-15T05:56:01.574Z,98.40
2018-07-15T06:01:06.719Z,98.30
2018-07-15T06:03:39.173Z,98.40
2018-07-15T06:06:12.005Z,98.10
2018-07-15T06:08:45.117Z,97.80
2018-07-15T06:11:17.607Z,97.80
2018-07-15T06:16:22.480Z,97.50
2018-07-15T06:18:55.062Z,97.80
2018-07-15T06:21:27.495Z,97.80
2018-07-15T06:23:59.878Z,97.50
2018-07-15T06:26:34.146Z,97.80
2018-07-15T06:29:06.589Z,97.00
2018-07-15T06:31:39.056Z,97.40
2018-07-15T06:34:11.672Z,97.30
2018-07-15T06:36:44.098Z,97.30
2018-07-15T06:41:48.997Z,97.00
2018-07-15T06:44:21.566Z,96.90
2018-07-15T06:49:26.838Z,96.80
2018-07-15T06:51:59.285Z,96.90
2018-07-15T06:54:31.715Z,97.10
2018-07-15T06:59:36.892Z,96.30
2018-07-15T07:02:09.331Z,96.90
2018-07-15T07:07:14.327Z,95.10
2018-07-15T07:09:46.805Z,95.10
2018-07-15T07:12:19.246Z,95.00
2018-07-15T07:14:51.974Z,95.50
2018-07-15T07:17:24.414Z,95.60
2018-07-15T07:19:56.808Z,95.40
2018-07-15T07:22:29.772Z,94.80
2018-07-15T07:25:02.240Z,94.90
2018-07-15T07:27:34.836Z,93.90
2018-07-15T07:30:07.325Z,94.80
2018-07-15T07:32:39.785Z,94.60
2018-07-15T07:35:12.251Z,93.40
2018-07-15T07:37:45.051Z,93.20
2018-07-15T07:40:17.532Z,92.50
2018-07-15T07:42:50.569Z,92.00
2018-07-15T07:45:23.423Z,91.50
2018-07-15T07:47:58.269Z,91.10
2018-07-15T07:50:31.082Z,91.90
2018-07-15T07:53:03.995Z,92.30
2018-07-15T07:55:36.451Z,91.90
2018-07-15T07:58:09.271Z,92.00
2018-07-15T08:00:41.698Z,91.80
2018-07-15T08:03:14.143Z,91.40
2018-07-15T08:05:47.079Z,91.00
2018-07-15T08:08:19.711Z,91.50
2018-07-15T08:10:52.151Z,91.50
2018-07-15T08:13:24.797Z,91.20
2018-07-15T08:15:57.162Z,90.90
2018-07-15T08:18:29.583Z,91.20
2018-07-15T08:21:02.307Z,91.40
2018-07-15T08:23:34.775Z,91.70
2018-07-15T08:26:07.481Z,91.70
2018-07-15T08:28:40.051Z,91.50
2018-07-15T08:31:15.537Z,91.20
2018-07-15T08:33:47.995Z,90.80
2018-07-15T08:36:20.865Z,91.00
2018-07-15T08:38:53.337Z,91.20
2018-07-15T08:41:26.362Z,91.00
2018-07-15T08:46:31.296Z,90.80
2018-07-15T08:49:03.939Z,90.70
2018-07-15T08:51:36.591Z,90.60
2018-07-15T08:54:09.061Z,90.70
2018-07-15T08:56:41.828Z,90.40
2018-07-15T09:01:47.361Z,90.20
2018-07-15T09:04:19.854Z,90.40
2018-07-15T09:06:52.554Z,90.10
2018-07-15T09:09:25.038Z,90.20
2018-07-15T09:11:58.021Z,89.70
2018-07-15T09:14:30.707Z,90.00
2018-07-15T09:17:03.174Z,90.30
2018-07-15T09:19:35.996Z,90.10
2018-07-15T09:22:10.588Z,90.20
2018-07-15T09:24:43.034Z,89.80
2018-07-15T09:27:16.279Z,89.60
2018-07-15T09:29:49.040Z,88.90
2018-07-15T09:32:21.523Z,88.70
2018-07-15T09:34:53.986Z,87.20
2018-07-15T09:37:26.947Z,88.30
2018-07-15T09:40:04.828Z,88.60
2018-07-15T09:42:38.048Z,88.60
2018-07-15T09:45:11.778Z,88.80
2018-07-15T09:47:44.838Z,87.80
2018-07-15T09:50:20.887Z,89.00
2018-07-15T09:52:54.381Z,89.00
2018-07-15T09:55:26.903Z,90.00
2018-07-15T09:57:59.376Z,89.70
2018-07-15T10:00:37.622Z,89.60
2018-07-15T10:03:10.132Z,88.60
2018-07-15T10:05:42.922Z,88.90
2018-07-15T10:08:15.490Z,88.80
2018-07-15T10:10:47.968Z,88.00
2018-07-15T10:13:20.949Z,88.80
2018-07-15T10:15:55.802Z,88.60
2018-07-15T10:18:28.366Z,87.10
2018-07-15T10:21:01.568Z,87.00
2018-07-15T10:23:35.481Z,86.80
2018-07-15T10:26:07.966Z,85.70
2018-07-15T10:31:12.960Z,86.60
2018-07-15T10:33:45.384Z,84.70
2018-07-15T10:36:17.827Z,85.60
2018-07-15T10:38:50.547Z,86.30
2018-07-15T10:41:23.156Z,86.90
2018-07-15T10:43:55.740Z,87.40
2018-07-15T10:46:28.658Z,87.70
2018-07-15T10:49:01.818Z,85.50
2018-07-15T10:51:35.200Z,85.90
2018-07-15T10:54:09.559Z,84.60
2018-07-15T10:56:45.499Z,83.70
2018-07-15T10:59:17.940Z,83.80
2018-07-15T11:01:50.533Z,84.40
2018-07-15T11:04:22.981Z,85.40
2018-07-15T11:07:01.165Z,84.90
2018-07-15T11:09:33.740Z,84.60
2018-07-15T11:12:06.506Z,85.10
2018-07-15T11:14:38.951Z,86.40
2018-07-15T11:17:11.552Z,86.90
2018-07-15T11:19:43.934Z,86.10
2018-07-15T11:22:16.489Z,86.60
2018-07-15T11:24:48.943Z,85.10
2018-07-15T11:27:21.393Z,86.10
2018-07-15T11:29:53.843Z,85.10
2018-07-15T11:32:26.323Z,84.80
2018-07-15T11:34:59.171Z,84.10
2018-07-15T11:37:31.614Z,84.40
2018-07-15T11:40:04.801Z,83.90
2018-07-15T11:42:37.212Z,83.40
2018-07-15T11:45:09.788Z,83.00
2018-07-15T11:47:42.248Z,84.70
2018-07-15T11:50:14.716Z,84.20
2018-07-15T11:52:48.458Z,84.50
2018-07-15T11:55:20.996Z,85.40
2018-07-15T12:00:25.847Z,82.90
2018-07-15T12:02:58.656Z,83.40
2018-07-15T12:05:31.078Z,84.20
2018-07-15T12:08:03.573Z,83.80
2018-07-15T12:10:36.148Z,84.10
2018-07-15T12:13:08.654Z,83.70
2018-07-15T12:15:41.146Z,83.60
2018-07-15T12:18:13.727Z,83.80
2018-07-15T12:20:46.232Z,83.20
2018-07-15T12:23:18.662Z,83.10
2018-07-15T12:25:51.417Z,82.20
2018-07-15T12:28:23.876Z,82.50
2018-07-15T12:30:56.385Z,81.60
2018-07-15T12:33:28.869Z,79.60
2018-07-15T12:36:01.341Z,80.00
2018-07-15T12:38:33.988Z,79.60
2018-07-15T12:41:06.501Z,81.00
2018-07-15T12:43:39.005Z,81.40
2018-07-15T12:46:11.564Z,82.50
2018-07-15T12:48:44.039Z,82.50
2018-07-15T12:51:16.539Z,82.70
2018-07-15T12:53:49.124Z,82.20
2018-07-15T12:56:21.586Z,83.80
2018-07-15T12:58:54.095Z,83.40
2018-07-15T13:01:26.644Z,83.40
2018-07-15T13:03:59.088Z,83.30
2018-07-15T13:06:31.843Z,82.30
2018-07-15T13:09:04.861Z,81.90
2018-07-15T13:11:37.383Z,81.00
2018-07-15T13:14:10.555Z,80.60
2018-07-15T13:16:42.990Z,80.30
2018-07-15T13:19:15.488Z,79.20
2018-07-15T13:21:47.980Z,79.00
2018-07-15T13:24:21.062Z,79.20
2018-07-15T13:26:53.711Z,79.80
2018-07-15T13:29:26.298Z,79.70
2018-07-15T13:31:59.188Z,79.40
2018-07-15T13:34:32.985Z,78.70
2018-07-15T13:37:05.466Z,78.70
2018-07-15T13:39:38.015Z,79.40
2018-07-15T13:42:10.687Z,78.70
2018-07-15T13:44:43.680Z,78.30
2018-07-15T13:47:16.553Z,79.80
2018-07-15T13:49:49.185Z,81.00
2018-07-15T13:52:21.935Z,79.90
2018-07-15T13:54:56.200Z,79.40
2018-07-15T13:57:29.118Z,79.20
2018-07-15T14:00:01.831Z,78.90
2018-07-15T14:05:10.758Z,77.70
2018-07-15T14:07:43.309Z,77.20
2018-07-15T14:10:19.087Z,76.80
2018-07-15T14:12:51.639Z,77.60
2018-07-15T14:15:24.162Z,77.80
2018-07-15T14:20:29.432Z,78.90
2018-07-15T14:23:01.981Z,78.40
2018-07-15T14:25:34.783Z,78.10
2018-07-15T14:28:07.195Z,77.90
2018-07-15T14:30:39.736Z,78.70
2018-07-15T14:33:14.567Z,77.80
2018-07-15T14:35:50.319Z,78.40
2018-07-15T14:38:22.760Z,77.50
2018-07-15T14:40:55.232Z,77.00
2018-07-15T14:43:27.831Z,76.00
2018-07-15T14:46:00.532Z,74.60
2018-07-15T14:48:34.087Z,75.00
2018-07-15T14:51:07.050Z,74.50
2018-07-15T14:53:39.493Z,74.90
2018-07-15T14:56:13.279Z,75.40
2018-07-15T14:58:45.873Z,74.90
2018-07-15T15:01:18.374Z,76.50
2018-07-15T15:03:50.843Z,76.50
2018-07-15T15:06:23.304Z,75.90
2018-07-15T15:08:55.801Z,75.80
2018-07-15T15:14:00.686Z,75.90
2018-07-15T15:16:33.196Z,75.90
2018-07-15T15:19:05.701Z,76.10
2018-07-15T15:24:10.732Z,90.90
2018-07-15T15:26:43.161Z,92.60
2018-07-15T15:29:15.865Z,87.60
2018-07-15T15:31:48.446Z,88.40
2018-07-15T15:34:21.134Z,85.10
2018-07-15T15:36:53.851Z,83.60
2018-07-15T15:39:26.365Z,83.80
2018-07-15T15:41:58.830Z,83.60
2018-07-15T15:44:32.166Z,82.20
2018-07-15T15:47:04.867Z,76.10
2018-07-15T15:49:37.398Z,75.50
2018-07-15T15:52:09.953Z,76.80
2018-07-15T15:54:42.639Z,77.10
2018-07-15T15:57:15.160Z,77.00
2018-07-15T15:59:48.208Z,76.90
2018-07-15T16:02:20.995Z,76.60
2018-07-15T16:04:53.499Z,75.90
2018-07-15T16:07:26.107Z,75.80
2018-07-15T16:09:58.911Z,76.30
2018-07-15T16:12:31.420Z,76.80
2018-07-15T16:15:04.074Z,77.20
2018-07-15T16:17:36.596Z,77.30
2018-07-15T16:20:16.235Z,77.20
2018-07-15T16:31:11.510Z,77.40
2018-07-15T16:33:43.974Z,76.70
2018-07-15T16:36:16.492Z,76.20
2018-07-15T16:38:48.925Z,75.50
2018-07-15T16:41:21.420Z,75.50
2018-07-15T16:43:53.954Z,75.40
2018-07-15T16:46:26.444Z,75.50
2018-07-15T16:48:58.980Z,75.30
2018-07-15T16:51:31.432Z,74.70
2018-07-15T16:54:04.133Z,75.20
2018-07-15T16:56:36.584Z,75.60
2018-07-15T16:59:09.649Z,76.30
2018-07-15T17:01:42.582Z,75.60
2018-07-15T17:04:15.934Z,76.60
2018-07-15T17:06:48.640Z,77.30
2018-07-15T17:09:21.081Z,77.00
2018-07-15T17:11:53.876Z,76.80
2018-07-15T17:14:26.449Z,77.00
2018-07-15T17:16:59.019Z,76.80
2018-07-15T17:19:31.628Z,76.80
2018-07-15T17:22:04.160Z,76.30
2018-07-15T17:24:36.957Z,76.50
2018-07-15T17:27:10.025Z,76.00
2018-07-15T17:29:42.583Z,76.40
2018-07-15T17:32:15.148Z,76.70
2018-07-15T17:34:47.646Z,77.00
2018-07-15T17:37:20.251Z,77.60
2018-07-15T17:39:52.674Z,77.40
2018-07-15T17:42:25.303Z,77.80
2018-07-15T17:44:57.803Z,78.40
2018-07-15T17:47:30.281Z,78.30
2018-07-15T17:50:02.958Z,79.60
2018-07-15T17:52:35.423Z,78.80
2018-07-15T17:55:08.452Z,78.60
2018-07-15T17:57:41.029Z,78.90
2018-07-15T18:00:13.548Z,78.70
2018-07-15T18:02:45.955Z,79.10
2018-07-15T18:05:18.408Z,79.70
2018-07-15T18:07:50.838Z,79.60
2018-07-15T18:10:25.682Z,79.40
2018-07-15T18:12:58.337Z,79.50
2018-07-15T18:15:31.162Z,79.80
2018-07-15T18:18:05.157Z,80.20
2018-07-15T18:20:38.587Z,79.90
2018-07-15T18:23:11.268Z,79.70
2018-07-15T18:25:43.702Z,79.60
2018-07-15T18:28:16.207Z,80.20
2018-07-15T18:30:48.951Z,80.40
2018-07-15T18:33:22.295Z,80.30
2018-07-15T18:35:54.766Z,80.60
2018-07-15T18:41:00.969Z,81.40
2018-07-15T18:43:33.762Z,81.50
2018-07-15T18:46:06.250Z,81.80
2018-07-15T18:48:38.803Z,82.30
2018-07-15T18:51:11.399Z,82.80
2018-07-15T18:53:43.895Z,82.60
2018-07-15T19:01:24.656Z,83.20
2018-07-15T19:03:57.098Z,83.50
2018-07-15T19:06:29.513Z,84.10
2018-07-15T19:09:02.192Z,84.60
2018-07-15T19:11:35.438Z,85.10
2018-07-15T19:14:08.082Z,85.30
2018-07-15T19:16:40.558Z,85.70
2018-07-15T19:19:13.137Z,86.00
2018-07-15T19:21:48.591Z,86.40
2018-07-15T19:26:53.626Z,87.30
2018-07-15T19:29:26.343Z,87.50
2018-07-15T19:31:58.835Z,87.60
2018-07-15T19:34:31.275Z,87.90
2018-07-15T19:37:03.784Z,88.00
2018-07-15T19:39:36.272Z,88.60
2018-07-15T19:42:08.925Z,89.30
2018-07-15T19:44:43.158Z,89.70
2018-07-15T19:47:15.702Z,90.00
2018-07-15T19:49:48.780Z,90.30
2018-07-15T19:54:54.164Z,90.20
2018-07-15T19:57:26.830Z,90.50
2018-07-15T19:59:59.408Z,90.80
2018-07-15T20:02:32.988Z,91.00
2018-07-15T20:05:06.082Z,91.10
2018-07-15T20:07:38.835Z,91.10
2018-07-15T20:10:11.556Z,91.40
2018-07-15T20:12:44.336Z,91.50
2018-07-15T20:15:17.112Z,91.70
2018-07-15T20:17:49.749Z,91.70
2018-07-15T20:20:22.452Z,92.00
2018-07-15T20:22:55.686Z,92.00
2018-07-15T20:25:28.562Z,92.20
2018-07-15T20:28:01.353Z,92.30
2018-07-15T20:30:36.954Z,92.40
2018-07-15T20:33:09.650Z,92.60
2018-07-15T20:35:42.277Z,92.70
2018-07-15T20:38:14.771Z,92.80
2018-07-15T20:40:47.226Z,92.90
2018-07-15T20:45:52.186Z,93.20
2018-07-15T20:48:24.644Z,93.30
2018-07-15T20:50:57.256Z,93.40
2018-07-15T20:53:29.827Z,93.70
2018-07-15T20:56:02.573Z,93.70
2018-07-15T20:58:35.526Z,93.70
2018-07-15T21:01:08.012Z,93.60
2018-07-15T21:03:40.523Z,93.80
2018-07-15T21:06:12.976Z,93.70
2018-07-15T21:08:45.383Z,93.60
2018-07-15T21:11:18.124Z,93.60
2018-07-15T21:13:50.593Z,93.80
2018-07-15T21:16:23.007Z,94.10
2018-07-15T21:18:55.673Z,94.60
2018-07-15T21:26:33.183Z,95.30
2018-07-15T21:29:05.628Z,95.40
2018-07-15T21:31:38.087Z,96.60
2018-07-15T21:34:10.539Z,95.80
2018-07-15T21:36:43.359Z,96.00
2018-07-15T21:39:15.818Z,96.10
2018-07-15T21:41:48.333Z,96.30
2018-07-15T21:46:53.385Z,96.20
2018-07-15T21:49:25.844Z,96.50
2018-07-15T21:51:58.587Z,98.60
2018-07-15T21:54:31.136Z,96.80
2018-07-15T21:57:03.705Z,96.90
2018-07-15T21:59:36.215Z,97.00
2018-07-15T22:02:09.470Z,97.10
2018-07-15T22:04:42.024Z,97.20
2018-07-15T22:07:25.932Z,97.30
2018-07-15T22:10:26.444Z,97.50
2018-07-15T22:12:58.916Z,97.60
2018-07-15T22:15:31.566Z,97.80
2018-07-15T22:18:04.073Z,97.80
2018-07-15T22:20:37.000Z,98.00
2018-07-15T22:23:09.495Z,98.10
2018-07-15T22:25:42.050Z,98.30
2018-07-15T22:28:14.465Z,98.40
2018-07-15T22:30:46.899Z,98.40
2018-07-15T22:33:19.352Z,98.60
2018-07-15T22:35:51.747Z,98.80
2018-07-15T22:38:24.494Z,99.10
2018-07-15T22:40:56.910Z,99.40
2018-07-15T22:43:29.358Z,99.50
2018-07-15T22:46:03.128Z,99.70
2018-07-15T22:48:35.717Z,99.80
2018-07-15T22:51:08.142Z,99.80
2018-07-15T22:53:40.648Z,99.90
2018-07-15T22:58:45.563Z,99.90
2018-07-15T23:01:18.006Z,99.90
2018-07-15T23:03:50.463Z,99.90
2018-07-15T23:06:22.885Z,99.90
2018-07-15T23:11:27.756Z,99.90
2018-07-15T23:14:00.190Z,99.90
2018-07-15T23:19:05.021Z,99.90
2018-07-15T23:21:37.416Z,99.90
2018-07-15T23:24:09.926Z,99.90
2018-07-15T23:26:44.372Z,99.90
2018-07-15T23:31:49.268Z,99.90
2018-07-15T23:34:21.969Z,99.90
2018-07-15T23:36:54.477Z,99.90
2018-07-15T23:41:59.613Z,99.90
2018-07-15T23:47:05.654Z,99.90
2018-07-15T23:49:38.127Z,99.90
2018-07-15T23:52:10.588Z,99.90
2018-07-15T23:54:43.025Z,99.90
2018-07-15T23:57:15.504Z,99.90
2018-07-15T23:59:47.945Z,99.90
